Terminal Aerodrome Forecast
Issued by NWS Portland, ME

Home | Current Version | Previous Version | Text Only | Print | Product List | Glossary On
Versions: 1 2 3 4 5 6 7 8 9 10 11 12 13 14 15 16 17 18
000
FTUS41 KGYX 041736
TAFCON
TAF
KCON 041736Z 0418/0518 21004KT P6SM -SHRA SCT060 BKN100
     FM042100 VRB03KT P6SM BKN200
     FM051400 31007KT P6SM SCT060=

USA.gov is the U.S. government's official web portal to all federal, state and local government web resources and services.